UAFG weather

Cholpon-Ata Airport
Cholpon-Ata, Issyk Kul Region, Kyrgyzstan

Public forecast

Using degrees Celsius for public forecast. Weather courtesy of forecast.io.

Closest aviation weather report (METAR) to Cholpon-Ata Airport

Closest report is Almaty Airport, 41.9 nm (77.7 km) N. Retrieved 2019/10/20 07:30 UTC (16 minutes ago):

UAAA 200730Z VRB01MPS 9999 FEW200 20/02 Q1017 R05R/CLRD65 NOSIG

Closest aviation forecast (TAF) to Cholpon-Ata Airport

Closest forecast is Almaty Airport, 41.9 nm (77.7 km) N. Retrieved 2019/10/20 06:21 UTC (1 hour ago):

TAF UAAA 200500Z 2006/2106 02004MPS 9999 SCT050CB SCT100 TX19/2008Z TN03/2101Z FM201200 22003MPS 3100 BR FU BKN050CB OVC100 TEMPO 2013/2021 16003MPS 1200 TEMPO 2021/2106 28003G10MPS -SHRA